SAS540 EGCC-EKCH
Flight info
| Callsign | SAS540 |
|---|---|
| Flight time | N/A |
| Altitude | 37000 |
| Route | SONEX L975 DESIG L603 LAMIX UT29 LIBSO UL975 ERDOW DCT GIGUL DCT LARGA DCT SOPTO DCT DOREV DCT TESPI |
| Aircraft | E195/M-SDE3GILORVW/S |
Departure
| Time | 2026-05-04 18:17 |
|---|---|
| Airport | Manchester Airport (EGCC) |
Arrival
| Time | N/A |
|---|---|
| Airport | Copenhagen Kastrup Airport (EKCH) |
| Time | Latitude | Longitude | Altitude | Speed | Heading |
|---|---|---|---|---|---|
| 2026-05-04 17:33 | 53.36859 | -2.28595 | 254 ft | 0 kts | 315° |
| 2026-05-04 17:59 | 53.36850 | -2.28581 | 254 ft | 4 kts | 315° |
| 2026-05-04 18:00 | 53.36835 | -2.28554 | 254 ft | 3 kts | 313° |
| 2026-05-04 18:00 | 53.36825 | -2.28522 | 254 ft | 4 kts | 250° |
| 2026-05-04 18:00 | 53.36833 | -2.28497 | 254 ft | 2 kts | 224° |
| 2026-05-04 18:00 | 53.36818 | -2.28522 | 254 ft | 4 kts | 224° |
| 2026-05-04 18:01 | 53.36813 | -2.28530 | 254 ft | 1 kts | 224° |
| 2026-05-04 18:06 | 53.36812 | -2.28532 | 254 ft | 1 kts | 224° |
| 2026-05-04 18:06 | 53.36803 | -2.28547 | 254 ft | 3 kts | 225° |
| 2026-05-04 18:07 | 53.36785 | -2.28576 | 254 ft | 4 kts | 225° |
| 2026-05-04 18:07 | 53.36758 | -2.28622 | 254 ft | 6 kts | 225° |
| 2026-05-04 18:07 | 53.36723 | -2.28681 | 254 ft | 8 kts | 225° |
| 2026-05-04 18:07 | 53.36679 | -2.28750 | 254 ft | 9 kts | 217° |
| 2026-05-04 18:08 | 53.36616 | -2.28794 | 254 ft | 10 kts | 185° |
| 2026-05-04 18:08 | 53.36558 | -2.28723 | 254 ft | 11 kts | 131° |
| 2026-05-04 18:08 | 53.36501 | -2.28624 | 254 ft | 13 kts | 136° |
| 2026-05-04 18:08 | 53.36436 | -2.28513 | 254 ft | 14 kts | 132° |
| 2026-05-04 18:09 | 53.36313 | -2.28233 | 254 ft | 16 kts | 136° |
| 2026-05-04 18:09 | 53.36145 | -2.27958 | 254 ft | 17 kts | 141° |
| 2026-05-04 18:10 | 53.36061 | -2.27849 | 254 ft | 13 kts | 142° |
| 2026-05-04 18:10 | 53.36003 | -2.27773 | 254 ft | 10 kts | 144° |
| 2026-05-04 18:10 | 53.35938 | -2.27725 | 254 ft | 11 kts | 173° |
| 2026-05-04 18:10 | 53.35864 | -2.27729 | 253 ft | 11 kts | 182° |
| 2026-05-04 18:11 | 53.35790 | -2.27690 | 250 ft | 10 kts | 137° |
| 2026-05-04 18:11 | 53.35720 | -2.27632 | 247 ft | 12 kts | 159° |
| 2026-05-04 18:11 | 53.35663 | -2.27582 | 245 ft | 8 kts | 142° |
| 2026-05-04 18:11 | 53.35640 | -2.27549 | 245 ft | 0 kts | 138° |
| 2026-05-04 18:12 | 53.35639 | -2.27547 | 245 ft | 0 kts | 138° |
| 2026-05-04 18:12 | 53.35638 | -2.27547 | 245 ft | 0 kts | 138° |
| 2026-05-04 18:12 | 53.35631 | -2.27537 | 244 ft | 3 kts | 139° |
| 2026-05-04 18:12 | 53.35625 | -2.27528 | 244 ft | 3 kts | 140° |
| 2026-05-04 18:13 | 53.35599 | -2.27492 | 243 ft | 6 kts | 141° |
| 2026-05-04 18:13 | 53.35561 | -2.27440 | 244 ft | 7 kts | 141° |
| 2026-05-04 18:13 | 53.35468 | -2.27313 | 247 ft | 13 kts | 141° |
| 2026-05-04 18:14 | 53.35391 | -2.27212 | 245 ft | 13 kts | 148° |
| 2026-05-04 18:14 | 53.35300 | -2.27197 | 240 ft | 13 kts | 190° |
| 2026-05-04 18:14 | 53.35219 | -2.27226 | 233 ft | 10 kts | 192° |
| 2026-05-04 18:15 | 53.35154 | -2.27249 | 230 ft | 3 kts | 192° |
| 2026-05-04 18:15 | 53.35047 | -2.27287 | 225 ft | 11 kts | 195° |
| 2026-05-04 18:15 | 53.34987 | -2.27365 | 224 ft | 11 kts | 226° |
| 2026-05-04 18:16 | 53.34948 | -2.27445 | 224 ft | 0 kts | 231° |
| 2026-05-04 18:16 | 53.34936 | -2.27469 | 223 ft | 9 kts | 231° |
| 2026-05-04 18:16 | 53.34759 | -2.27833 | 221 ft | 72 kts | 231° |
| 2026-05-04 18:17 | 53.33695 | -2.30073 | 422 ft | 156 kts | 232° |
| 2026-05-04 18:17 | 53.32966 | -2.31602 | 863 ft | 178 kts | 231° |
| 2026-05-04 18:17 | 53.31403 | -2.34877 | 2253 ft | 183 kts | 238° |
| 2026-05-04 18:18 | 53.30880 | -2.36822 | 2705 ft | 191 kts | 265° |
| 2026-05-04 18:18 | 53.31150 | -2.39012 | 3118 ft | 200 kts | 298° |
| 2026-05-04 18:18 | 53.32072 | -2.40747 | 3630 ft | 208 kts | 324° |
| 2026-05-04 18:18 | 53.33424 | -2.41760 | 4064 ft | 218 kts | 342° |
| 2026-05-04 18:19 | 53.36577 | -2.42704 | 4604 ft | 243 kts | 351° |
| 2026-05-04 18:19 | 53.38311 | -2.43010 | 4873 ft | 254 kts | 354° |
| 2026-05-04 18:19 | 53.40109 | -2.43270 | 5030 ft | 264 kts | 350° |
| 2026-05-04 18:20 | 53.41865 | -2.44130 | 5041 ft | 263 kts | 336° |
| 2026-05-04 18:20 | 53.43555 | -2.45281 | 5076 ft | 262 kts | 345° |
| 2026-05-04 18:20 | 53.45367 | -2.45217 | 5091 ft | 265 kts | 17° |
| 2026-05-04 18:20 | 53.46846 | -2.43422 | 5077 ft | 268 kts | 54° |
| 2026-05-04 18:21 | 53.47488 | -2.40484 | 5032 ft | 272 kts | 79° |
| 2026-05-04 18:21 | 53.47768 | -2.37343 | 5006 ft | 272 kts | 81° |
| 2026-05-04 18:21 | 53.48031 | -2.34209 | 5033 ft | 270 kts | 80° |
| 2026-05-04 18:21 | 53.48320 | -2.31131 | 5048 ft | 271 kts | 80° |
| 2026-05-04 18:22 | 53.48610 | -2.27998 | 5044 ft | 271 kts | 81° |
| 2026-05-04 18:22 | 53.48858 | -2.24860 | 5046 ft | 271 kts | 82° |
| 2026-05-04 18:22 | 53.49132 | -2.21731 | 4995 ft | 272 kts | 78° |
| 2026-05-04 18:22 | 53.49553 | -2.18648 | 4997 ft | 271 kts | 75° |
| 2026-05-04 18:23 | 53.49995 | -2.15577 | 5310 ft | 272 kts | 77° |
| 2026-05-04 18:23 | 53.50355 | -2.12431 | 6036 ft | 276 kts | 79° |
| 2026-05-04 18:23 | 53.50687 | -2.09241 | 6683 ft | 280 kts | 79° |
| 2026-05-04 18:23 | 53.50965 | -2.06003 | 7327 ft | 282 kts | 80° |
| 2026-05-04 18:24 | 53.51285 | -2.02752 | 8001 ft | 284 kts | 79° |
| 2026-05-04 18:24 | 53.51598 | -1.99449 | 8632 ft | 288 kts | 79° |
| 2026-05-04 18:24 | 53.51971 | -1.96118 | 9281 ft | 292 kts | 78° |
| 2026-05-04 18:24 | 53.52361 | -1.92740 | 9957 ft | 297 kts | 79° |
| 2026-05-04 18:25 | 53.52730 | -1.89271 | 10380 ft | 310 kts | 82° |
| 2026-05-04 18:25 | 53.52673 | -1.85573 | 10725 ft | 323 kts | 103° |
| 2026-05-04 18:25 | 53.52014 | -1.81944 | 11369 ft | 326 kts | 109° |
| 2026-05-04 18:25 | 53.51280 | -1.78327 | 12032 ft | 329 kts | 109° |
| 2026-05-04 18:26 | 53.50554 | -1.74669 | 12697 ft | 331 kts | 109° |
| 2026-05-04 18:26 | 53.49831 | -1.71018 | 13339 ft | 334 kts | 109° |
| 2026-05-04 18:26 | 53.49081 | -1.67246 | 13973 ft | 338 kts | 109° |
| 2026-05-04 18:26 | 53.48343 | -1.63537 | 14562 ft | 340 kts | 109° |
| 2026-05-04 18:27 | 53.47585 | -1.59759 | 15156 ft | 343 kts | 109° |
| 2026-05-04 18:27 | 53.46835 | -1.55945 | 15746 ft | 346 kts | 108° |
| 2026-05-04 18:27 | 53.46146 | -1.52052 | 16307 ft | 349 kts | 107° |
| 2026-05-04 18:27 | 53.45458 | -1.48128 | 16863 ft | 353 kts | 107° |
| 2026-05-04 18:28 | 53.44751 | -1.44157 | 17468 ft | 355 kts | 108° |
| 2026-05-04 18:28 | 53.44033 | -1.40166 | 18067 ft | 358 kts | 108° |
| 2026-05-04 18:28 | 53.43307 | -1.36148 | 18631 ft | 361 kts | 108° |
| 2026-05-04 18:28 | 53.42575 | -1.32107 | 19210 ft | 362 kts | 108° |
| 2026-05-04 18:29 | 53.41849 | -1.28115 | 19779 ft | 364 kts | 108° |
| 2026-05-04 18:29 | 53.41111 | -1.24046 | 20355 ft | 366 kts | 107° |
| 2026-05-04 18:29 | 53.40376 | -1.19944 | 20891 ft | 368 kts | 107° |
| 2026-05-04 18:29 | 53.39626 | -1.15832 | 21417 ft | 370 kts | 107° |
| 2026-05-04 18:30 | 53.38104 | -1.07546 | 22443 ft | 373 kts | 107° |
| 2026-05-04 18:30 | 53.37336 | -1.03372 | 22949 ft | 375 kts | 107° |
| 2026-05-04 18:30 | 53.36562 | -0.99171 | 23341 ft | 379 kts | 107° |
| 2026-05-04 18:31 | 53.35779 | -0.94930 | 23800 ft | 382 kts | 107° |
| 2026-05-04 18:31 | 53.34993 | -0.90694 | 24275 ft | 382 kts | 107° |
| 2026-05-04 18:31 | 53.34204 | -0.86445 | 24720 ft | 383 kts | 107° |
| 2026-05-04 18:31 | 53.33408 | -0.82174 | 25134 ft | 385 kts | 107° |
| 2026-05-04 18:32 | 53.32609 | -0.77890 | 25550 ft | 387 kts | 107° |
| 2026-05-04 18:32 | 53.31816 | -0.73642 | 25945 ft | 388 kts | 106° |
| 2026-05-04 18:32 | 53.31346 | -0.69206 | 26284 ft | 389 kts | 90° |
| 2026-05-04 18:32 | 53.31779 | -0.64769 | 26638 ft | 389 kts | 70° |
| 2026-05-04 18:33 | 53.32862 | -0.60615 | 27030 ft | 390 kts | 65° |
| 2026-05-04 18:33 | 53.34018 | -0.56500 | 27370 ft | 391 kts | 65° |
| 2026-05-04 18:33 | 53.35184 | -0.52370 | 27731 ft | 393 kts | 65° |
| 2026-05-04 18:33 | 53.36355 | -0.48235 | 28094 ft | 394 kts | 64° |
| 2026-05-04 18:34 | 53.37537 | -0.44081 | 28460 ft | 395 kts | 64° |
| 2026-05-04 18:34 | 53.38724 | -0.39921 | 28828 ft | 396 kts | 64° |
| 2026-05-04 18:34 | 53.39918 | -0.35755 | 29174 ft | 397 kts | 64° |
| 2026-05-04 18:34 | 53.41112 | -0.31567 | 29512 ft | 399 kts | 65° |
| 2026-05-04 18:35 | 53.42292 | -0.27353 | 29833 ft | 400 kts | 65° |
| 2026-05-04 18:35 | 53.43479 | -0.23111 | 30152 ft | 401 kts | 65° |
| 2026-05-04 18:35 | 53.44649 | -0.18917 | 30388 ft | 403 kts | 65° |
| 2026-05-04 18:35 | 53.45856 | -0.14591 | 30622 ft | 405 kts | 65° |
| 2026-05-04 18:36 | 53.47034 | -0.10360 | 30841 ft | 407 kts | 65° |
| 2026-05-04 18:36 | 53.48233 | -0.06047 | 31071 ft | 408 kts | 65° |
| 2026-05-04 18:36 | 53.49437 | -0.01709 | 31262 ft | 410 kts | 65° |
| 2026-05-04 18:37 | 53.51866 | 0.07057 | 31531 ft | 416 kts | 64° |
| 2026-05-04 18:37 | 53.53441 | 0.11138 | 31702 ft | 418 kts | 50° |
| 2026-05-04 18:37 | 53.55384 | 0.14784 | 31915 ft | 419 kts | 48° |
| 2026-05-04 18:37 | 53.57354 | 0.18405 | 32101 ft | 421 kts | 48° |
| 2026-05-04 18:38 | 53.59334 | 0.22060 | 32286 ft | 422 kts | 48° |
| 2026-05-04 18:38 | 53.61309 | 0.25719 | 32519 ft | 422 kts | 48° |
| 2026-05-04 18:38 | 53.63278 | 0.29380 | 32788 ft | 422 kts | 48° |
| 2026-05-04 18:38 | 53.65244 | 0.33042 | 33058 ft | 421 kts | 48° |
| 2026-05-04 18:39 | 53.67209 | 0.36707 | 33332 ft | 420 kts | 48° |
| 2026-05-04 18:39 | 53.69170 | 0.40371 | 33600 ft | 420 kts | 48° |
| 2026-05-04 18:39 | 53.71103 | 0.43987 | 33865 ft | 419 kts | 48° |
| 2026-05-04 18:39 | 53.73059 | 0.47650 | 34102 ft | 419 kts | 48° |
| 2026-05-04 18:40 | 53.75009 | 0.51316 | 34302 ft | 418 kts | 49° |
| 2026-05-04 18:40 | 53.76933 | 0.55020 | 34444 ft | 420 kts | 49° |
| 2026-05-04 18:40 | 53.78891 | 0.58711 | 34597 ft | 422 kts | 48° |
| 2026-05-04 18:40 | 53.80868 | 0.62383 | 34778 ft | 422 kts | 48° |
| 2026-05-04 18:41 | 53.82841 | 0.66071 | 34952 ft | 423 kts | 48° |
| 2026-05-04 18:41 | 53.84820 | 0.69790 | 35134 ft | 424 kts | 48° |
| 2026-05-04 18:41 | 53.86793 | 0.73512 | 35314 ft | 425 kts | 48° |
| 2026-05-04 18:41 | 53.88766 | 0.77244 | 35502 ft | 425 kts | 48° |
| 2026-05-04 18:42 | 53.90741 | 0.80986 | 35674 ft | 426 kts | 48° |
| 2026-05-04 18:42 | 53.92511 | 0.84929 | 35830 ft | 426 kts | 59° |
| 2026-05-04 18:42 | 53.93940 | 0.89333 | 35972 ft | 426 kts | 63° |
| 2026-05-04 18:42 | 53.95292 | 0.93784 | 36209 ft | 424 kts | 63° |
| 2026-05-04 18:43 | 53.96639 | 0.98231 | 36459 ft | 422 kts | 63° |
| 2026-05-04 18:43 | 53.97980 | 1.02647 | 36715 ft | 420 kts | 63° |
| 2026-05-04 18:43 | 53.99315 | 1.07043 | 36972 ft | 418 kts | 63° |
| 2026-05-04 18:44 | 54.02002 | 1.15880 | 37056 ft | 424 kts | 63° |
| 2026-05-04 18:44 | 54.04734 | 1.24890 | 37073 ft | 432 kts | 63° |
| 2026-05-04 18:45 | 54.07507 | 1.34070 | 37101 ft | 439 kts | 63° |
| 2026-05-04 18:45 | 54.10296 | 1.43340 | 37127 ft | 446 kts | 63° |
| 2026-05-04 18:46 | 54.13145 | 1.52844 | 37048 ft | 454 kts | 63° |
| 2026-05-04 18:46 | 54.16026 | 1.62490 | 37049 ft | 458 kts | 63° |
| 2026-05-04 18:47 | 54.18917 | 1.72216 | 37045 ft | 459 kts | 63° |
| 2026-05-04 18:47 | 54.21802 | 1.81952 | 37046 ft | 459 kts | 63° |
| 2026-05-04 18:48 | 54.24658 | 1.91728 | 37048 ft | 460 kts | 64° |
| 2026-05-04 18:48 | 54.27470 | 2.01558 | 37038 ft | 460 kts | 63° |
| 2026-05-04 18:49 | 54.30404 | 2.11295 | 37041 ft | 460 kts | 63° |
| 2026-05-04 18:49 | 54.33244 | 2.21050 | 37042 ft | 461 kts | 63° |
| 2026-05-04 18:50 | 54.36125 | 2.30896 | 37050 ft | 461 kts | 63° |
| 2026-05-04 18:50 | 54.38979 | 2.40744 | 37047 ft | 461 kts | 63° |
| 2026-05-04 18:51 | 54.41829 | 2.50608 | 37051 ft | 461 kts | 63° |
| 2026-05-04 18:51 | 54.44663 | 2.60493 | 37050 ft | 461 kts | 64° |
| 2026-05-04 18:52 | 54.47492 | 2.70399 | 37047 ft | 462 kts | 64° |
| 2026-05-04 18:52 | 54.50285 | 2.80284 | 37038 ft | 463 kts | 64° |
| 2026-05-04 18:53 | 54.52673 | 2.88612 | 37037 ft | 463 kts | 63° |
| 2026-05-04 18:53 | 54.55486 | 2.98545 | 37055 ft | 464 kts | 64° |
| 2026-05-04 18:54 | 54.58309 | 3.08557 | 37054 ft | 464 kts | 64° |
| 2026-05-04 18:54 | 54.61116 | 3.18571 | 37047 ft | 464 kts | 64° |
| 2026-05-04 18:55 | 54.63778 | 3.28728 | 37056 ft | 464 kts | 63° |
| 2026-05-04 18:55 | 54.69146 | 3.42677 | 37043 ft | 465 kts | 54° |
| 2026-05-04 18:56 | 54.72788 | 3.51829 | 37062 ft | 465 kts | 55° |
| 2026-05-04 18:56 | 54.76471 | 3.61064 | 37043 ft | 466 kts | 59° |
| 2026-05-04 18:57 | 54.77826 | 3.66150 | 37074 ft | 466 kts | 70° |
| 2026-05-04 18:57 | 54.78881 | 3.71486 | 37064 ft | 467 kts | 71° |
| 2026-05-04 18:57 | 54.80920 | 3.82175 | 37047 ft | 467 kts | 71° |
| 2026-05-04 18:58 | 54.82980 | 3.92879 | 37046 ft | 468 kts | 71° |
| 2026-05-04 18:58 | 54.85042 | 4.03593 | 37049 ft | 468 kts | 71° |
| 2026-05-04 18:59 | 54.87095 | 4.14310 | 37048 ft | 468 kts | 71° |
| 2026-05-04 18:59 | 54.89140 | 4.25040 | 37046 ft | 468 kts | 71° |
| 2026-05-04 19:00 | 54.91164 | 4.35715 | 37043 ft | 468 kts | 72° |
| 2026-05-04 19:00 | 54.93196 | 4.46499 | 37042 ft | 470 kts | 71° |
| 2026-05-04 19:01 | 54.95229 | 4.57333 | 37047 ft | 471 kts | 71° |
| 2026-05-04 19:01 | 54.97251 | 4.68190 | 37045 ft | 471 kts | 72° |
| 2026-05-04 19:02 | 54.99264 | 4.79059 | 37045 ft | 471 kts | 72° |
| 2026-05-04 19:02 | 55.01267 | 4.89933 | 37044 ft | 471 kts | 72° |
| 2026-05-04 19:03 | 55.03252 | 5.00754 | 37044 ft | 471 kts | 72° |
| 2026-05-04 19:03 | 55.05245 | 5.11650 | 37043 ft | 471 kts | 72° |
| 2026-05-04 19:04 | 55.07221 | 5.22559 | 37040 ft | 471 kts | 72° |
| 2026-05-04 19:04 | 55.09190 | 5.33486 | 37039 ft | 471 kts | 72° |
| 2026-05-04 19:05 | 55.11153 | 5.44410 | 37041 ft | 471 kts | 72° |
| 2026-05-04 19:05 | 55.13097 | 5.55283 | 37044 ft | 472 kts | 72° |
| 2026-05-04 19:06 | 55.15043 | 5.66255 | 37043 ft | 473 kts | 72° |
| 2026-05-04 19:06 | 55.16999 | 5.77275 | 37037 ft | 474 kts | 72° |
| 2026-05-04 19:07 | 55.18926 | 5.88313 | 37036 ft | 474 kts | 72° |
| 2026-05-04 19:07 | 55.20850 | 5.99376 | 37037 ft | 474 kts | 72° |
| 2026-05-04 19:08 | 55.22766 | 6.10428 | 37037 ft | 475 kts | 72° |
| 2026-05-04 19:08 | 55.24676 | 6.21509 | 37035 ft | 475 kts | 73° |
| 2026-05-04 19:09 | 55.26579 | 6.32603 | 37036 ft | 475 kts | 73° |
| 2026-05-04 19:09 | 55.28475 | 6.43712 | 37032 ft | 475 kts | 73° |
| 2026-05-04 19:10 | 55.30356 | 6.54849 | 37033 ft | 475 kts | 73° |
| 2026-05-04 19:10 | 55.32209 | 6.65922 | 37032 ft | 475 kts | 73° |
| 2026-05-04 19:11 | 55.34081 | 6.77081 | 37038 ft | 476 kts | 73° |
| 2026-05-04 19:11 | 55.35925 | 6.88287 | 37035 ft | 478 kts | 73° |
| 2026-05-04 19:12 | 55.38704 | 7.05131 | 37022 ft | 478 kts | 73° |
| 2026-05-04 19:13 | 55.40540 | 7.16381 | 37029 ft | 478 kts | 73° |
| 2026-05-04 19:13 | 55.42352 | 7.27581 | 37033 ft | 479 kts | 73° |
| 2026-05-04 19:14 | 55.44174 | 7.38871 | 37029 ft | 479 kts | 73° |
| 2026-05-04 19:14 | 55.45979 | 7.50162 | 37027 ft | 479 kts | 74° |
| 2026-05-04 19:15 | 55.47773 | 7.61461 | 37026 ft | 479 kts | 74° |
| 2026-05-04 19:15 | 55.49563 | 7.72768 | 37024 ft | 479 kts | 74° |
| 2026-05-04 19:16 | 55.51328 | 7.84103 | 37019 ft | 479 kts | 74° |
| 2026-05-04 19:16 | 55.53094 | 7.95439 | 37025 ft | 480 kts | 74° |
| 2026-05-04 19:17 | 55.54866 | 8.06830 | 37011 ft | 481 kts | 74° |
| 2026-05-04 19:17 | 55.56616 | 8.18173 | 37011 ft | 482 kts | 74° |
| 2026-05-04 19:18 | 55.58355 | 8.29604 | 37004 ft | 482 kts | 74° |
| 2026-05-04 19:18 | 55.60092 | 8.41049 | 37019 ft | 481 kts | 74° |
| 2026-05-04 19:18 | 55.60949 | 8.46770 | 36848 ft | 478 kts | 75° |
| 2026-05-04 19:19 | 55.61787 | 8.52383 | 36550 ft | 465 kts | 75° |
| 2026-05-04 19:19 | 55.62596 | 8.57842 | 36322 ft | 451 kts | 76° |
| 2026-05-04 19:19 | 55.63102 | 8.63233 | 36071 ft | 439 kts | 83° |
| 2026-05-04 19:19 | 55.63423 | 8.68528 | 35810 ft | 427 kts | 84° |
| 2026-05-04 19:20 | 55.63717 | 8.73695 | 35557 ft | 417 kts | 84° |
| 2026-05-04 19:20 | 55.64011 | 8.78762 | 35312 ft | 414 kts | 84° |
| 2026-05-04 19:20 | 55.64310 | 8.83869 | 35087 ft | 420 kts | 84° |
| 2026-05-04 19:20 | 55.64615 | 8.89053 | 34834 ft | 426 kts | 84° |
| 2026-05-04 19:21 | 55.64923 | 8.94290 | 34585 ft | 427 kts | 84° |
| 2026-05-04 19:21 | 55.65229 | 8.99522 | 34347 ft | 427 kts | 84° |
| 2026-05-04 19:21 | 55.65528 | 9.04683 | 34108 ft | 426 kts | 84° |
| 2026-05-04 19:21 | 55.65828 | 9.09897 | 33852 ft | 425 kts | 84° |
| 2026-05-04 19:22 | 55.66127 | 9.15106 | 33575 ft | 425 kts | 84° |
| 2026-05-04 19:22 | 55.66423 | 9.20318 | 33302 ft | 426 kts | 84° |
| 2026-05-04 19:22 | 55.66715 | 9.25547 | 33030 ft | 427 kts | 84° |
| 2026-05-04 19:22 | 55.67003 | 9.30781 | 32759 ft | 427 kts | 84° |
| 2026-05-04 19:23 | 55.67290 | 9.36032 | 32489 ft | 428 kts | 84° |
| 2026-05-04 19:23 | 55.67576 | 9.41279 | 32228 ft | 428 kts | 84° |
| 2026-05-04 19:23 | 55.67861 | 9.46539 | 31958 ft | 429 kts | 84° |
| 2026-05-04 19:23 | 55.68143 | 9.51800 | 31702 ft | 429 kts | 84° |
| 2026-05-04 19:24 | 55.68425 | 9.57083 | 31452 ft | 430 kts | 84° |
| 2026-05-04 19:24 | 55.68704 | 9.62359 | 31196 ft | 431 kts | 84° |
| 2026-05-04 19:24 | 55.68978 | 9.67582 | 30934 ft | 431 kts | 85° |
| 2026-05-04 19:24 | 55.69254 | 9.72850 | 30818 ft | 422 kts | 85° |
| 2026-05-04 19:25 | 55.69518 | 9.77938 | 30659 ft | 408 kts | 85° |
| 2026-05-04 19:25 | 55.70031 | 9.87843 | 30713 ft | 410 kts | 85° |
| 2026-05-04 19:26 | 55.70553 | 9.98138 | 30731 ft | 426 kts | 85° |
| 2026-05-04 19:26 | 55.71077 | 10.08545 | 30324 ft | 427 kts | 85° |
| 2026-05-04 19:26 | 55.71336 | 10.13822 | 29870 ft | 431 kts | 85° |
| 2026-05-04 19:27 | 55.71597 | 10.19156 | 29401 ft | 435 kts | 85° |
| 2026-05-04 19:27 | 55.71857 | 10.24518 | 28956 ft | 437 kts | 85° |
| 2026-05-04 19:27 | 55.72118 | 10.29903 | 28506 ft | 439 kts | 85° |
| 2026-05-04 19:27 | 55.72378 | 10.35307 | 28078 ft | 440 kts | 85° |
| 2026-05-04 19:28 | 55.72637 | 10.40724 | 27632 ft | 441 kts | 85° |
| 2026-05-04 19:28 | 55.72898 | 10.46116 | 27155 ft | 438 kts | 85° |
| 2026-05-04 19:28 | 55.73155 | 10.51477 | 26687 ft | 435 kts | 85° |
| 2026-05-04 19:28 | 55.73403 | 10.56810 | 26232 ft | 432 kts | 85° |
| 2026-05-04 19:29 | 55.73650 | 10.62113 | 25779 ft | 430 kts | 85° |
| 2026-05-04 19:29 | 55.73895 | 10.67393 | 25315 ft | 427 kts | 85° |
| 2026-05-04 19:29 | 55.74136 | 10.72630 | 24808 ft | 425 kts | 85° |
| 2026-05-04 19:29 | 55.74365 | 10.77784 | 24273 ft | 422 kts | 85° |
| 2026-05-04 19:30 | 55.74600 | 10.82969 | 23745 ft | 419 kts | 85° |
| 2026-05-04 19:30 | 55.74829 | 10.88069 | 23667 ft | 412 kts | 85° |
| 2026-05-04 19:30 | 55.75055 | 10.93196 | 22961 ft | 415 kts | 85° |
| 2026-05-04 19:30 | 55.75279 | 10.98312 | 22442 ft | 418 kts | 85° |
| 2026-05-04 19:31 | 55.75503 | 11.03448 | 21839 ft | 415 kts | 85° |
| 2026-05-04 19:31 | 55.75722 | 11.08522 | 21283 ft | 409 kts | 85° |
| 2026-05-04 19:31 | 55.75933 | 11.13532 | 20741 ft | 404 kts | 85° |
| 2026-05-04 19:31 | 55.76148 | 11.18463 | 20211 ft | 399 kts | 85° |
| 2026-05-04 19:32 | 55.76355 | 11.23357 | 19685 ft | 395 kts | 85° |
| 2026-05-04 19:32 | 55.76553 | 11.28206 | 19166 ft | 392 kts | 85° |
| 2026-05-04 19:32 | 55.76751 | 11.32955 | 18653 ft | 389 kts | 85° |
| 2026-05-04 19:32 | 55.76948 | 11.37748 | 18108 ft | 388 kts | 85° |
| 2026-05-04 19:33 | 55.77142 | 11.42493 | 17629 ft | 383 kts | 85° |
| 2026-05-04 19:33 | 55.77335 | 11.47207 | 17091 ft | 382 kts | 89° |
| 2026-05-04 19:33 | 55.77260 | 11.51904 | 16596 ft | 379 kts | 95° |
| 2026-05-04 19:33 | 55.76982 | 11.56539 | 16078 ft | 377 kts | 97° |
| 2026-05-04 19:34 | 55.76671 | 11.61133 | 15587 ft | 374 kts | 97° |
| 2026-05-04 19:34 | 55.76365 | 11.65711 | 15091 ft | 372 kts | 97° |
| 2026-05-04 19:34 | 55.76064 | 11.70250 | 14600 ft | 368 kts | 97° |
| 2026-05-04 19:34 | 55.75769 | 11.74735 | 14114 ft | 363 kts | 97° |
| 2026-05-04 19:35 | 55.75478 | 11.79153 | 13623 ft | 358 kts | 97° |
| 2026-05-04 19:35 | 55.75197 | 11.83431 | 13368 ft | 346 kts | 97° |
| 2026-05-04 19:35 | 55.74923 | 11.87602 | 13147 ft | 334 kts | 97° |
| 2026-05-04 19:35 | 55.74686 | 11.91631 | 12921 ft | 320 kts | 97° |
| 2026-05-04 19:36 | 55.74464 | 11.95515 | 12132 ft | 317 kts | 97° |
| 2026-05-04 19:36 | 55.74236 | 11.99401 | 11759 ft | 313 kts | 97° |
| 2026-05-04 19:36 | 55.74010 | 12.03224 | 11432 ft | 308 kts | 97° |
| 2026-05-04 19:36 | 55.73783 | 12.06989 | 11102 ft | 304 kts | 97° |
| 2026-05-04 19:37 | 55.73560 | 12.10707 | 10735 ft | 303 kts | 97° |
| 2026-05-04 19:37 | 55.73335 | 12.14424 | 10373 ft | 301 kts | 97° |
| 2026-05-04 19:37 | 55.73109 | 12.18104 | 9980 ft | 300 kts | 97° |
| 2026-05-04 19:37 | 55.72886 | 12.21751 | 9511 ft | 302 kts | 97° |
| 2026-05-04 19:38 | 55.72663 | 12.25383 | 9112 ft | 288 kts | 97° |
| 2026-05-04 19:38 | 55.72447 | 12.28902 | 8796 ft | 287 kts | 97° |
| 2026-05-04 19:38 | 55.72226 | 12.32426 | 8392 ft | 288 kts | 97° |
| 2026-05-04 19:38 | 55.72006 | 12.35953 | 8001 ft | 287 kts | 97° |
| 2026-05-04 19:39 | 55.71787 | 12.39424 | 7908 ft | 276 kts | 97° |
| 2026-05-04 19:39 | 55.71576 | 12.42775 | 7893 ft | 273 kts | 97° |
| 2026-05-04 19:39 | 55.71363 | 12.46145 | 7930 ft | 276 kts | 97° |
| 2026-05-04 19:39 | 55.71168 | 12.49613 | 7434 ft | 292 kts | 91° |
| 2026-05-04 19:40 | 55.71521 | 12.53208 | 6576 ft | 298 kts | 68° |
| 2026-05-04 19:40 | 55.72420 | 12.56471 | 5721 ft | 299 kts | 58° |
| 2026-05-04 19:40 | 55.73445 | 12.59649 | 5373 ft | 294 kts | 59° |
| 2026-05-04 19:40 | 55.74318 | 12.62895 | 5084 ft | 288 kts | 65° |
| 2026-05-04 19:41 | 55.75077 | 12.66054 | 4807 ft | 269 kts | 65° |
| 2026-05-04 19:41 | 55.75795 | 12.69025 | 4606 ft | 258 kts | 65° |
| 2026-05-04 19:41 | 55.76488 | 12.71903 | 4494 ft | 246 kts | 65° |
| 2026-05-04 19:41 | 55.77129 | 12.74602 | 4396 ft | 230 kts | 65° |
| 2026-05-04 19:42 | 55.77745 | 12.77188 | 4298 ft | 226 kts | 64° |
| 2026-05-04 19:42 | 55.78645 | 12.79392 | 4203 ft | 219 kts | 33° |
| 2026-05-04 19:42 | 55.79984 | 12.80513 | 4143 ft | 211 kts | 18° |
| 2026-05-04 19:42 | 55.80865 | 12.81253 | 4090 ft | 212 kts | 26° |
| 2026-05-04 19:43 | 55.82104 | 12.82695 | 4031 ft | 213 kts | 33° |